Time;durP1;ratioP1;P1;durP2;ratioP2;P2;SDS_P1;SDS_P2;PMS_P1;PMS_P2;Temp;Humidity;BMP_temperature;BMP_pressure;BME280_temperature;BME280_humidity;BME280_pressure;Samples;Min_cycle;Max_cycle;Signal;HPM_P1;HPM_P2
2023/04/26 00:01:16;;;;;;;;;;;;;;;19.69;39.60;95553.63;10392688;28;2031;-62
2023/04/26 00:06:37;;;;;;;;;;;;;;;19.68;39.62;95562.59;10390866;28;1870;-62
2023/04/26 00:11:58;;;;;;;;;;;;;;;19.67;39.74;95555.75;10394617;28;1875;-62
2023/04/26 00:17:18;;;;;;;;;;;;;;;19.67;39.59;95548.66;10394734;28;1906;-62
2023/04/26 00:22:39;;;;;;;;;;;;;;;19.66;39.46;95548.94;10396678;28;2045;-62
2023/04/26 00:28:00;;;;;;;;;;;;;;;19.65;39.42;95552.63;10407506;28;2184;-62
2023/04/26 00:33:21;;;;;;;;;;;;;;;19.64;39.45;95551.81;10399797;28;1870;-61
2023/04/26 00:38:41;;;;;;;;;;;;;;;19.63;39.43;95544.22;10399733;28;1886;-62
2023/04/26 00:44:02;;;;;;;;;;;;;;;19.62;39.36;95553.94;10401352;28;1945;-62
2023/04/26 00:49:23;;;;;;;;;;;;;;;19.61;39.45;95554.22;10400973;28;1847;-62
2023/04/26 00:54:43;;;;;;;;;;;;;;;19.60;39.23;95550.03;10407677;28;1968;-62
2023/04/26 01:00:05;;;;;;;;;;;;;;;19.58;39.16;95547.66;10398743;28;1974;-62
2023/04/26 01:05:26;;;;;;;;;;;;;;;19.58;39.24;95554.78;10401175;28;1989;-62
2023/04/26 01:10:47;;;;;;;;;;;;;;;19.57;39.01;95556.59;10403148;28;1995;-62
2023/04/26 01:16:07;;;;;;;;;;;;;;;19.56;39.24;95560.28;10402432;28;2040;-62
2023/04/26 01:21:28;;;;;;;;;;;;;;;19.56;39.31;95559.50;10395845;28;1977;-62
2023/04/26 01:26:49;;;;;;;;;;;;;;;19.55;39.07;95561.34;10391413;28;2011;-62
2023/04/26 01:32:09;;;;;;;;;;;;;;;19.53;39.02;95566.09;10394384;28;1985;-62
2023/04/26 01:37:30;;;;;;;;;;;;;;;19.54;39.08;95569.53;10408244;28;2017;-62
2023/04/26 01:42:50;;;;;;;;;;;;;;;19.54;39.04;95559.00;10392771;28;2129;-62
2023/04/26 01:48:11;;;;;;;;;;;;;;;19.52;38.89;95574.22;10399220;28;2167;-61
2023/04/26 01:53:31;;;;;;;;;;;;;;;19.49;39.06;95563.19;10391445;28;1934;-62
2023/04/26 01:58:54;;;;;;;;;;;;;;;19.49;38.83;95568.47;10397214;28;1917;-61
2023/04/26 02:04:15;;;;;;;;;;;;;;;19.49;38.92;95575.59;10390943;28;2136;-61
2023/04/26 02:09:35;;;;;;;;;;;;;;;19.49;39.04;95586.09;10393121;28;1999;-61
2023/04/26 02:14:56;;;;;;;;;;;;;;;19.47;38.88;95583.72;10400393;28;2010;-62
2023/04/26 02:20:17;;;;;;;;;;;;;;;19.44;38.98;95576.38;10394388;28;1977;-62
2023/04/26 02:25:37;;;;;;;;;;;;;;;19.44;39.14;95568.50;10398940;28;1953;-62
2023/04/26 02:30:58;;;;;;;;;;;;;;;19.43;38.78;95559.03;10400390;28;1971;-61
2023/04/26 02:36:19;;;;;;;;;;;;;;;19.43;38.84;95566.91;10397708;28;1935;-60
2023/04/26 02:41:39;;;;;;;;;;;;;;;19.42;38.78;95567.97;10402492;28;1977;-61
2023/04/26 02:47:00;;;;;;;;;;;;;;;19.41;38.83;95568.25;10394772;28;2028;-61
2023/04/26 02:52:20;;;;;;;;;;;;;;;19.41;38.93;95573.53;10402454;28;1922;-61
2023/04/26 02:57:41;;;;;;;;;;;;;;;19.40;38.87;95570.09;10399913;28;1939;-60
2023/04/26 03:03:02;;;;;;;;;;;;;;;19.39;38.67;95570.38;10400945;28;1917;-61
2023/04/26 03:08:22;;;;;;;;;;;;;;;19.38;38.88;95572.22;10382838;28;1874;-61
2023/04/26 03:13:43;;;;;;;;;;;;;;;19.37;38.77;95570.63;10400829;28;1920;-61
2023/04/26 03:19:04;;;;;;;;;;;;;;;19.36;38.71;95574.31;10382214;28;2003;-61
2023/04/26 03:24:25;;;;;;;;;;;;;;;19.36;38.76;95574.31;10392498;28;1920;-61
2023/04/26 03:29:45;;;;;;;;;;;;;;;19.36;38.66;95569.06;10397565;28;1887;-62
2023/04/26 03:35:06;;;;;;;;;;;;;;;19.35;38.55;95579.84;10397810;28;1862;-62
2023/04/26 03:40:26;;;;;;;;;;;;;;;19.34;38.77;95576.44;10398921;28;1979;-62
2023/04/26 03:45:48;;;;;;;;;;;;;;;19.33;38.64;95582.72;10386775;28;1899;-62
2023/04/26 03:51:08;;;;;;;;;;;;;;;19.32;38.68;95586.41;10397147;28;1979;-62
2023/04/26 03:56:29;;;;;;;;;;;;;;;19.31;38.54;95584.81;10391189;28;1920;-61
2023/04/26 04:01:50;;;;;;;;;;;;;;;19.31;38.62;95589.28;10389809;28;1914;-62
2023/04/26 04:07:10;;;;;;;;;;;;;;;19.30;38.65;95582.47;10403095;28;1888;-61
2023/04/26 04:12:31;;;;;;;;;;;;;;;19.32;38.86;95588.22;10404308;28;1899;-61
2023/04/26 04:17:51;;;;;;;;;;;;;;;19.36;38.85;95586.66;10401709;28;1820;-62
2023/04/26 04:23:12;;;;;;;;;;;;;;;19.41;38.82;95590.06;10398058;28;1960;-62
2023/04/26 04:28:33;;;;;;;;;;;;;;;19.51;38.89;95588.44;10406618;28;1870;-62
2023/04/26 04:33:53;;;;;;;;;;;;;;;19.59;38.93;95598.41;10386882;28;1964;-61
2023/04/26 04:39:15;;;;;;;;;;;;;;;19.68;38.74;95602.81;10398170;28;2004;-61
2023/04/26 04:44:36;;;;;;;;;;;;;;;19.75;38.52;95613.03;10397401;28;2033;-62
2023/04/26 04:49:57;;;;;;;;;;;;;;;19.83;38.57;95618.53;10400228;28;1835;-61
2023/04/26 04:55:18;;;;;;;;;;;;;;;19.89;38.54;95619.25;10387226;28;1949;-61
2023/04/26 05:00:39;;;;;;;;;;;;;;;19.95;38.26;95618.97;10406287;28;1966;-62
2023/04/26 05:06:00;;;;;;;;;;;;;;;20.04;38.00;95629.72;10397384;28;1884;-62
2023/04/26 05:11:20;;;;;;;;;;;;;;;20.06;38.00;95644.19;10397480;28;1843;-62
2023/04/26 05:16:41;;;;;;;;;;;;;;;20.09;38.08;95646.25;10384728;28;1899;-62
2023/04/26 05:22:02;;;;;;;;;;;;;;;20.14;37.89;95646.22;10403219;28;1914;-61
2023/04/26 05:27:23;;;;;;;;;;;;;;;20.20;37.97;95639.09;10402795;28;1913;-62
2023/04/26 05:32:44;;;;;;;;;;;;;;;20.24;37.69;95648.03;10401249;28;2125;-62
2023/04/26 05:38:05;;;;;;;;;;;;;;;20.28;37.42;95649.06;10396101;28;1905;-62
2023/04/26 05:43:25;;;;;;;;;;;;;;;20.28;37.67;95652.47;10401826;28;1962;-62
2023/04/26 05:48:46;;;;;;;;;;;;;;;20.32;37.79;95657.22;10391383;28;1836;-62
2023/04/26 05:54:06;;;;;;;;;;;;;;;20.34;37.57;95661.13;10405614;28;1839;-61
2023/04/26 05:59:31;;;;;;;;;;;;;;;20.37;37.41;95659.78;10409360;28;1969;-61
2023/04/26 06:04:52;;;;;;;;;;;;;;;20.38;37.20;95664.00;10407267;28;1946;-61
2023/04/26 06:10:13;;;;;;;;;;;;;;;20.39;37.27;95668.19;10412791;28;1831;-61
2023/04/26 06:15:34;;;;;;;;;;;;;;;20.40;37.06;95675.06;10394912;28;1877;-60
2023/04/26 06:20:54;;;;;;;;;;;;;;;20.40;37.12;95677.69;10404769;28;2034;-62
2023/04/26 06:26:15;;;;;;;;;;;;;;;20.42;37.00;95672.94;10401161;28;1962;-61
2023/04/26 06:31:35;;;;;;;;;;;;;;;20.45;37.16;95680.25;10394531;28;2114;-59
2023/04/26 06:36:56;;;;;;;;;;;;;;;20.46;37.29;95673.97;10392101;28;1935;-59
2023/04/26 06:42:17;;;;;;;;;;;;;;;20.45;37.51;95680.25;10398402;28;1971;-59
2023/04/26 06:47:37;;;;;;;;;;;;;;;20.45;37.28;95675.78;10398145;28;2229;-59
2023/04/26 06:52:58;;;;;;;;;;;;;;;20.48;37.20;95674.47;10393171;28;1988;-59
2023/04/26 06:58:18;;;;;;;;;;;;;;;20.48;37.27;95690.25;10394126;28;1902;-59
2023/04/26 07:03:41;;;;;;;;;;;;;;;20.46;37.48;95690.53;10396657;28;1914;-59
2023/04/26 07:09:02;;;;;;;;;;;;;;;20.46;37.25;95690.53;10394814;28;2138;-59
2023/04/26 07:14:23;;;;;;;;;;;;;;;20.49;37.31;95697.09;10401828;28;1883;-59
2023/04/26 07:19:43;;;;;;;;;;;;;;;20.48;37.11;95693.69;10397034;28;1902;-59
2023/04/26 07:25:04;;;;;;;;;;;;;;;20.45;37.36;95694.22;10393161;28;2191;-59
2023/04/26 07:30:25;;;;;;;;;;;;;;;20.45;37.42;95688.97;10393252;28;1832;-59
2023/04/26 07:35:49;;;;;;;;;;;;;;;20.44;37.30;95686.59;10392698;28;1855;-59
2023/04/26 07:41:11;;;;;;;;;;;;;;;20.40;37.49;95686.38;10411087;28;2145;-59
2023/04/26 07:46:33;;;;;;;;;;;;;;;20.38;37.82;95685.84;10412362;28;2015;-59
2023/04/26 07:51:55;;;;;;;;;;;;;;;20.31;37.86;95684.56;10399727;28;2287;-59
2023/04/26 07:57:15;;;;;;;;;;;;;;;20.27;38.31;95681.72;10406320;28;1948;-58
2023/04/26 08:02:36;;;;;;;;;;;;;;;20.25;38.30;95689.09;10403338;28;1960;-59
2023/04/26 08:07:56;;;;;;;;;;;;;;;20.24;38.35;95692.78;10405916;28;1939;-59
2023/04/26 08:13:17;;;;;;;;;;;;;;;20.19;38.52;95679.63;10407955;28;7891;-60
2023/04/26 08:18:37;;;;;;;;;;;;;;;20.18;38.43;95680.66;10406351;28;5434;-59
2023/04/26 08:23:58;;;;;;;;;;;;;;;20.13;38.60;95692.00;10408801;28;5332;-60
2023/04/26 08:29:19;;;;;;;;;;;;;;;20.11;38.66;95682.84;10393239;28;7953;-61
2023/04/26 08:34:40;;;;;;;;;;;;;;;20.10;38.95;95682.03;10401265;28;8052;-62
2023/04/26 08:40:00;;;;;;;;;;;;;;;20.08;39.35;95683.38;10397195;28;8130;-62
2023/04/26 08:45:21;;;;;;;;;;;;;;;20.06;39.00;95678.38;10401214;28;8182;-62
2023/04/26 08:50:42;;;;;;;;;;;;;;;20.03;39.19;95675.50;10403822;28;8074;-62
2023/04/26 08:56:03;;;;;;;;;;;;;;;19.99;39.23;95680.50;10407558;28;8109;-62
2023/04/26 09:01:24;;;;;;;;;;;;;;;19.98;39.24;95672.91;10397228;28;1915;-62
2023/04/26 09:06:45;;;;;;;;;;;;;;;19.98;39.52;95684.22;10396917;28;8191;-64
2023/04/26 09:12:06;;;;;;;;;;;;;;;19.97;39.70;95687.88;10410996;28;8132;-64
2023/04/26 09:17:27;;;;;;;;;;;;;;;19.94;39.43;95682.38;10421418;28;1895;-63
2023/04/26 09:23:08;;;;;;;;;;;;;;;19.97;39.58;95679.22;10405245;28;6479;-63
2023/04/26 09:28:28;;;;;;;;;;;;;;;19.94;39.88;95671.88;10404084;28;8213;-63
2023/04/26 09:33:29;;;;;;;;;;;;;;;19.90;39.57;95674.25;10398585;28;8081;-67
2023/04/26 09:38:29;;;;;;;;;;;;;;;19.90;39.89;95673.47;10550988;22;3038;-58
2023/04/26 09:43:30;;;;;;;;;;;;;;;19.88;40.06;95673.75;10344166;28;8053;-59
2023/04/26 09:48:33;;;;;;;;;;;;;;;19.89;39.57;95674.50;10330062;28;2287;-60
2023/04/26 09:53:36;;;;;;;;;;;;;;;19.86;39.98;95675.84;10332835;28;8057;-58
2023/04/26 09:58:37;;;;;;;;;;;;;;;19.85;39.89;95674.28;10352154;28;8155;-59
2023/04/26 10:03:37;;;;;;;;;;;;;;;19.85;39.84;95674.28;10348772;28;5354;-59
2023/04/26 10:08:37;;;;;;;;;;;;;;;19.84;39.92;95679.81;10346229;28;1901;-59
2023/04/26 10:13:38;;;;;;;;;;;;;;;19.81;39.90;95667.97;10348436;28;8238;-59
2023/04/26 10:18:39;;;;;;;;;;;;;;;19.83;39.95;95670.34;10347983;28;1945;-59
2023/04/26 10:23:39;;;;;;;;;;;;;;;19.81;40.02;95657.47;10348300;28;1964;-59
2023/04/26 10:28:40;;;;;;;;;;;;;;;19.81;39.62;95654.03;10334086;28;8305;-59
2023/04/26 10:33:40;;;;;;;;;;;;;;;19.79;39.67;95650.88;10349156;28;2099;-59
2023/04/26 10:38:41;;;;;;;;;;;;;;;19.80;40.24;95647.22;10346688;28;1954;-59
2023/04/26 10:43:41;;;;;;;;;;;;;;;19.82;40.50;95642.47;10348048;28;1989;-58
2023/04/26 10:48:42;;;;;;;;;;;;;;;19.83;40.42;95628.25;10349757;28;2019;-58
2023/04/26 10:53:45;;;;;;;;;;;;;;;19.80;40.38;95618.28;10357858;28;1497;-58
2023/04/26 10:58:45;;;;;;;;;;;;;;;19.85;40.57;95615.59;10369697;28;1483;-58
2023/04/26 11:03:55;;;;;;;;;;;;;;;19.83;40.55;95623.78;10351655;28;8185;-58
2023/04/26 11:08:55;;;;;;;;;;;;;;;19.82;40.53;95610.91;10350193;28;1974;-58
2023/04/26 11:13:56;;;;;;;;;;;;;;;19.86;40.18;95610.09;10340327;28;1973;-59
2023/04/26 11:18:56;;;;;;;;;;;;;;;19.80;40.22;95595.41;10352630;28;2017;-58
2023/04/26 11:23:56;;;;;;;;;;;;;;;19.78;40.23;95594.88;10332275;28;2104;-58
2023/04/26 11:28:58;;;;;;;;;;;;;;;19.76;40.42;95601.47;10355692;28;2026;-59
2023/04/26 11:34:04;;;;;;;;;;;;;;;19.75;40.39;95599.88;10362928;28;1952;-58
2023/04/26 11:39:04;;;;;;;;;;;;;;;19.74;40.30;95598.31;10350723;28;1969;-59
2023/04/26 11:44:04;;;;;;;;;;;;;;;19.73;40.31;95596.75;10353758;28;2057;-59
2023/04/26 11:49:05;;;;;;;;;;;;;;;19.71;40.27;95593.59;10353084;28;1966;-59
2023/04/26 11:54:05;;;;;;;;;;;;;;;19.70;40.23;95603.31;10332472;28;1984;-59
2023/04/26 11:59:06;;;;;;;;;;;;;;;19.69;39.92;95600.97;10347670;28;1974;-58
2023/04/26 12:04:08;;;;;;;;;;;;;;;19.69;39.90;95591.25;10353213;28;4904;-58
2023/04/26 12:09:10;;;;;;;;;;;;;;;19.68;40.17;95594.16;10352062;28;1972;-59
2023/04/26 12:14:10;;;;;;;;;;;;;;;19.68;39.98;95594.16;10351194;28;2026;-58
2023/04/26 12:19:12;;;;;;;;;;;;;;;19.68;39.98;95599.41;10352538;28;1944;-59
2023/04/26 12:24:21;;;;;;;;;;;;;;;19.67;40.04;95600.47;10349877;28;1996;-59
2023/04/26 12:29:22;;;;;;;;;;;;;;;19.65;40.05;95597.31;10351163;28;2090;-58
2023/04/26 12:34:22;;;;;;;;;;;;;;;19.65;39.99;95595.47;10339044;28;2078;-58
2023/04/26 12:39:22;;;;;;;;;;;;;;;19.65;40.05;95597.31;10361903;28;2050;-59
2023/04/26 12:44:23;;;;;;;;;;;;;;;19.63;40.04;95602.06;10362105;28;1920;-58
2023/04/26 12:49:23;;;;;;;;;;;;;;;19.63;39.94;95591.53;10363110;28;2045;-58
2023/04/26 12:54:23;;;;;;;;;;;;;;;19.61;40.03;95591.81;10363622;28;2051;-59
2023/04/26 12:59:24;;;;;;;;;;;;;;;19.59;40.00;95574.72;10366553;28;1983;-59
2023/04/26 13:04:24;;;;;;;;;;;;;;;19.61;39.92;95576.03;10359852;28;4951;-59
2023/04/26 13:09:24;;;;;;;;;;;;;;;19.60;39.80;95577.09;10355308;28;2048;-58
2023/04/26 13:14:25;;;;;;;;;;;;;;;19.60;40.03;95568.44;10360545;28;1957;-59
2023/04/26 13:19:25;;;;;;;;;;;;;;;19.62;40.09;95561.81;10355954;28;1928;-59
2023/04/26 13:24:25;;;;;;;;;;;;;;;19.63;40.15;95560.78;10359499;28;1936;-58
2023/04/26 13:29:25;;;;;;;;;;;;;;;19.64;40.07;95562.34;10356223;28;1892;-59
2023/04/26 13:34:26;;;;;;;;;;;;;;;19.60;40.15;95561.31;10351865;28;1936;-59
2023/04/26 13:39:29;;;;;;;;;;;;;;;19.63;39.88;95560.00;10352282;28;1927;-59
2023/04/26 13:44:30;;;;;;;;;;;;;;;19.64;39.85;95551.06;10352311;28;2045;-58
2023/04/26 13:49:30;;;;;;;;;;;;;;;19.67;39.97;95550.50;10347671;28;2316;-58
2023/04/26 13:54:30;;;;;;;;;;;;;;;19.70;39.87;95534.19;10356330;28;2015;-59
2023/04/26 13:59:30;;;;;;;;;;;;;;;19.74;39.74;95540.47;10343539;28;2051;-58
2023/04/26 14:04:31;;;;;;;;;;;;;;;19.77;39.76;95534.66;10355752;28;4915;-58
2023/04/26 14:09:31;;;;;;;;;;;;;;;19.83;39.73;95528.28;10347030;28;2012;-59
2023/04/26 14:14:31;;;;;;;;;;;;;;;19.87;39.81;95521.44;10349806;28;1998;-59
2023/04/26 14:19:32;;;;;;;;;;;;;;;19.92;39.75;95534.56;10349776;28;2383;-60
2023/04/26 14:24:32;;;;;;;;;;;;;;;19.97;39.78;95539.78;10355023;28;2013;-59
2023/04/26 14:29:32;;;;;;;;;;;;;;;20.01;39.88;95546.84;10357322;28;1973;-59
2023/04/26 14:34:34;;;;;;;;;;;;;;;20.06;39.70;95543.41;10352301;28;1964;-59
2023/04/26 14:39:36;;;;;;;;;;;;;;;20.07;39.94;95545.75;10354822;28;1928;-59
2023/04/26 14:44:36;;;;;;;;;;;;;;;20.13;39.88;95542.00;10347272;28;2017;-59
2023/04/26 14:49:36;;;;;;;;;;;;;;;20.15;39.96;95534.63;10357131;28;2061;-59
2023/04/26 14:54:40;;;;;;;;;;;;;;;20.18;40.11;95535.94;10355154;28;1964;-59
2023/04/26 14:59:41;;;;;;;;;;;;;;;20.23;39.89;95535.94;10355187;28;1925;-59
2023/04/26 15:04:41;;;;;;;;;;;;;;;20.25;39.87;95539.06;10357547;28;4483;-59
2023/04/26 15:09:41;;;;;;;;;;;;;;;20.26;40.05;95533.53;10352017;28;1984;-58
2023/04/26 15:14:41;;;;;;;;;;;;;;;20.28;39.99;95527.97;10360894;28;2074;-58
2023/04/26 15:19:42;;;;;;;;;;;;;;;20.30;39.92;95528.47;10336963;28;1996;-59
2023/04/26 15:24:42;;;;;;;;;;;;;;;20.31;40.16;95524.81;10353569;28;1981;-59
2023/04/26 15:29:42;;;;;;;;;;;;;;;20.34;40.29;95524.22;10350678;28;2072;-59
2023/04/26 15:34:44;;;;;;;;;;;;;;;20.32;40.21;95513.19;10349459;28;2040;-59
2023/04/26 15:39:44;;;;;;;;;;;;;;;20.35;40.29;95515.28;10355707;28;1953;-59
2023/04/26 15:44:44;;;;;;;;;;;;;;;20.33;40.29;95516.63;10347109;28;2149;-59
2023/04/26 15:49:45;;;;;;;;;;;;;;;20.34;40.25;95518.97;10351694;28;2048;-58
2023/04/26 15:54:45;;;;;;;;;;;;;;;20.34;40.23;95518.97;10350685;28;2026;-59
2023/04/26 15:59:46;;;;;;;;;;;;;;;20.32;40.00;95515.06;10351713;28;2047;-59
2023/04/26 16:04:46;;;;;;;;;;;;;;;20.30;40.03;95523.22;10360735;28;4565;-59
2023/04/26 16:09:46;;;;;;;;;;;;;;;20.28;40.11;95520.06;10357172;28;1990;-59
2023/04/26 16:14:47;;;;;;;;;;;;;;;20.26;39.97;95530.88;10361652;28;2023;-59
2023/04/26 16:19:48;;;;;;;;;;;;;;;20.24;40.01;95535.66;10354631;28;2091;-59
2023/04/26 16:24:48;;;;;;;;;;;;;;;20.23;40.51;95528.03;10357371;28;1968;-58
2023/04/26 16:29:48;;;;;;;;;;;;;;;20.22;40.41;95524.59;10360104;28;1939;-57
2023/04/26 16:34:50;;;;;;;;;;;;;;;20.19;40.36;95526.97;10360756;28;1984;-58
2023/04/26 16:39:53;;;;;;;;;;;;;;;20.19;40.24;95533.06;10362004;28;2008;-59
2023/04/26 16:44:53;;;;;;;;;;;;;;;20.17;40.25;95529.09;10362574;28;1969;-59
2023/04/26 16:49:53;;;;;;;;;;;;;;;20.15;40.34;95520.69;10357425;28;2006;-59
2023/04/26 16:54:54;;;;;;;;;;;;;;;20.13;40.28;95528.09;10358523;28;2020;-59
2023/04/26 16:59:54;;;;;;;;;;;;;;;20.10;40.10;95528.63;10359538;28;2084;-57
2023/04/26 17:04:54;;;;;;;;;;;;;;;20.09;40.00;95537.59;10342374;28;4763;-58
2023/04/26 17:09:55;;;;;;;;;;;;;;;20.06;39.88;95543.41;10356340;28;2043;-58
2023/04/26 17:14:55;;;;;;;;;;;;;;;20.07;40.09;95552.88;10364536;28;2069;-58
2023/04/26 17:19:55;;;;;;;;;;;;;;;20.02;40.03;95551.06;10369686;28;2062;-58
2023/04/26 17:24:55;;;;;;;;;;;;;;;20.01;40.29;95553.97;10372766;28;1963;-59
2023/04/26 17:29:56;;;;;;;;;;;;;;;20.01;40.29;95562.63;10373575;28;1503;-59
2023/04/26 17:34:56;;;;;;;;;;;;;;;19.98;40.15;95559.75;10364800;28;2189;-59
2023/04/26 17:39:56;;;;;;;;;;;;;;;19.99;40.36;95563.97;10363257;28;8239;-59
2023/04/26 17:44:57;;;;;;;;;;;;;;;19.98;40.36;95563.19;10366295;28;8505;-59
2023/04/26 17:49:57;;;;;;;;;;;;;;;19.98;40.45;95573.72;10361253;28;8381;-59
2023/04/26 17:54:57;;;;;;;;;;;;;;;19.95;40.60;95582.13;10365532;28;8976;-58
2023/04/26 17:59:58;;;;;;;;;;;;;;;19.96;40.60;95580.31;10349413;28;8314;-59
2023/04/26 18:04:58;;;;;;;;;;;;;;;19.94;40.50;95585.84;10360549;28;8386;-58
2023/04/26 18:09:58;;;;;;;;;;;;;;;19.94;40.54;95585.06;10372809;28;8290;-58
2023/04/26 18:14:58;;;;;;;;;;;;;;;19.94;40.68;95588.47;10348205;28;8490;-58
2023/04/26 18:19:59;;;;;;;;;;;;;;;19.94;40.63;95598.19;10348484;28;8245;-59
2023/04/26 18:25:00;;;;;;;;;;;;;;;19.96;40.55;95601.34;10347183;28;5444;-59
2023/04/26 18:30:00;;;;;;;;;;;;;;;19.96;40.88;95603.97;10350673;28;1454;-58
2023/04/26 18:35:03;;;;;;;;;;;;;;;19.96;40.52;95607.41;10372281;28;8250;-58
2023/04/26 18:40:04;;;;;;;;;;;;;;;19.99;40.49;95617.38;10353438;28;1669;-58
2023/04/26 18:45:05;;;;;;;;;;;;;;;19.99;40.38;95619.22;10362098;28;1911;-58
2023/04/26 18:50:06;;;;;;;;;;;;;;;19.99;40.26;95621.88;10365963;28;5370;-58
2023/04/26 18:55:06;;;;;;;;;;;;;;;20.01;40.16;95630.28;10346775;28;1413;-58
2023/04/26 19:00:07;;;;;;;;;;;;;;;20.02;40.08;95637.09;10353122;28;1436;-58
2023/04/26 19:05:11;;;;;;;;;;;;;;;20.01;40.22;95638.94;10363348;28;1906;-57
2023/04/26 19:10:14;;;;;;;;;;;;;;;20.03;40.06;95641.31;10349798;28;1576;-57
2023/04/26 19:15:14;;;;;;;;;;;;;;;20.05;40.25;95637.31;10358585;28;1917;-57
2023/04/26 19:20:15;;;;;;;;;;;;;;;20.04;40.17;95643.66;10356406;28;1527;-58
2023/04/26 19:25:19;;;;;;;;;;;;;;;20.06;40.02;95643.38;10352652;28;5195;-58
2023/04/26 19:30:20;;;;;;;;;;;;;;;20.07;39.80;95647.59;10352273;28;1881;-59
2023/04/26 19:35:21;;;;;;;;;;;;;;;20.05;39.91;95642.59;10355558;28;1881;-60
2023/04/26 19:40:21;;;;;;;;;;;;;;;20.06;39.92;95644.19;10355594;28;1900;-59
2023/04/26 19:45:21;;;;;;;;;;;;;;;20.04;40.05;95658.66;10352255;28;1987;-60
2023/04/26 19:50:21;;;;;;;;;;;;;;;20.03;39.86;95654.47;10354988;28;1899;-59
2023/04/26 19:55:22;;;;;;;;;;;;;;;20.02;39.73;95663.41;10352098;28;1899;-59
2023/04/26 20:00:23;;;;;;;;;;;;;;;20.00;39.81;95665.53;10356292;28;1888;-60
2023/04/26 20:05:25;;;;;;;;;;;;;;;19.98;39.80;95657.91;10352371;28;1902;-59
2023/04/26 20:10:25;;;;;;;;;;;;;;;19.97;39.79;95658.19;10341497;28;1894;-59
2023/04/26 20:15:26;;;;;;;;;;;;;;;19.94;39.74;95648.19;10358415;28;1938;-59
2023/04/26 20:20:26;;;;;;;;;;;;;;;19.93;39.58;95657.13;10352755;28;2194;-59
2023/04/26 20:25:26;;;;;;;;;;;;;;;19.93;39.42;95651.88;10353395;28;5271;-59
2023/04/26 20:30:29;;;;;;;;;;;;;;;19.90;39.41;95660.31;10363461;28;1978;-59
2023/04/26 20:35:29;;;;;;;;;;;;;;;19.88;39.39;95657.16;10356444;28;1943;-63
2023/04/26 20:40:30;;;;;;;;;;;;;;;19.87;39.13;95669.53;10361379;28;2017;-59
2023/04/26 20:45:30;;;;;;;;;;;;;;;19.88;39.06;95673.75;10355890;28;1960;-59
2023/04/26 20:50:31;;;;;;;;;;;;;;;19.84;39.21;95669.28;10363770;28;1818;-59
2023/04/26 20:55:31;;;;;;;;;;;;;;;19.82;39.09;95671.41;10325779;28;1976;-59
2023/04/26 21:00:31;;;;;;;;;;;;;;;19.80;39.23;95670.88;10355984;28;2021;-59
2023/04/26 21:05:31;;;;;;;;;;;;;;;19.79;39.05;95679.81;10354214;28;1910;-59
2023/04/26 21:10:32;;;;;;;;;;;;;;;19.76;39.05;95680.38;10355670;28;1992;-59
2023/04/26 21:15:32;;;;;;;;;;;;;;;19.74;39.19;95671.97;10356126;28;2002;-59
2023/04/26 21:20:32;;;;;;;;;;;;;;;19.72;39.06;95674.09;10357985;28;2027;-59
2023/04/26 21:25:32;;;;;;;;;;;;;;;19.70;38.87;95676.19;10362583;28;5072;-60
2023/04/26 21:30:33;;;;;;;;;;;;;;;19.71;38.98;95675.13;10360089;28;1876;-59
2023/04/26 21:35:33;;;;;;;;;;;;;;;19.68;38.95;95675.69;10359821;28;1897;-59
2023/04/26 21:40:33;;;;;;;;;;;;;;;19.66;38.97;95675.91;10362719;28;1982;-59
2023/04/26 21:45:34;;;;;;;;;;;;;;;19.66;39.09;95667.28;10354136;28;1954;-59
2023/04/26 21:50:34;;;;;;;;;;;;;;;19.65;39.04;95678.84;10361981;28;2035;-60
2023/04/26 21:55:35;;;;;;;;;;;;;;;19.64;38.90;95680.66;10359786;28;1997;-60
2023/04/26 22:00:35;;;;;;;;;;;;;;;19.63;38.93;95683.56;10358446;28;2017;-59
2023/04/26 22:05:35;;;;;;;;;;;;;;;19.61;38.83;95688.31;10360587;28;2107;-59
2023/04/26 22:10:36;;;;;;;;;;;;;;;19.60;38.97;95687.53;10358939;28;2025;-59
2023/04/26 22:15:36;;;;;;;;;;;;;;;19.59;38.70;95679.91;10351738;28;2080;-59
2023/04/26 22:20:36;;;;;;;;;;;;;;;19.59;38.73;95679.91;10355292;28;1901;-59
2023/04/26 22:25:36;;;;;;;;;;;;;;;19.57;38.94;95682.03;10360614;28;5164;-59
2023/04/26 22:30:37;;;;;;;;;;;;;;;19.55;38.85;95678.88;10362991;28;1972;-59
2023/04/26 22:35:37;;;;;;;;;;;;;;;19.54;38.83;95687.81;10365931;28;2001;-59
2023/04/26 22:40:37;;;;;;;;;;;;;;;19.53;38.80;95681.78;10366931;28;1882;-59
2023/04/26 22:45:38;;;;;;;;;;;;;;;19.52;38.66;95680.19;10369124;28;2134;-59
2023/04/26 22:50:38;;;;;;;;;;;;;;;19.51;38.82;95691.78;10365218;28;2010;-59
2023/04/26 22:55:38;;;;;;;;;;;;;;;19.49;38.88;95688.63;10368778;28;2131;-59
2023/04/26 23:00:38;;;;;;;;;;;;;;;19.50;38.59;95690.19;10361503;28;2150;-59
2023/04/26 23:05:39;;;;;;;;;;;;;;;19.48;38.60;95685.19;10358355;28;1914;-59
2023/04/26 23:10:39;;;;;;;;;;;;;;;19.46;38.79;95694.41;10357900;28;2143;-60
2023/04/26 23:15:40;;;;;;;;;;;;;;;19.45;38.75;95692.84;10356280;28;2016;-59
2023/04/26 23:20:41;;;;;;;;;;;;;;;19.45;38.50;95692.84;10354395;28;1929;-59
2023/04/26 23:25:41;;;;;;;;;;;;;;;19.43;38.47;95693.09;10359430;28;5029;-59
2023/04/26 23:30:41;;;;;;;;;;;;;;;19.43;38.55;95679.19;10357220;28;2052;-60
2023/04/26 23:35:42;;;;;;;;;;;;;;;19.42;38.57;95681.00;10359730;28;1948;-60
2023/04/26 23:40:42;;;;;;;;;;;;;;;19.41;38.79;95687.31;10351508;28;1928;-60
2023/04/26 23:45:46;;;;;;;;;;;;;;;19.41;38.67;95683.91;10356225;28;2005;-60
2023/04/26 23:50:46;;;;;;;;;;;;;;;19.39;38.60;95684.16;10353061;28;1915;-59
2023/04/26 23:55:46;;;;;;;;;;;;;;;19.38;38.66;95679.19;10355073;28;1987;-60
